Time;durP1;ratioP1;P1;durP2;ratioP2;P2;SDS_P1;SDS_P2;PMS_P1;PMS_P2;Temp;Humidity;BMP_temperature;BMP_pressure;BME280_temperature;BME280_humidity;BME280_pressure;Samples;Min_cycle;Max_cycle;Signal;HPM_P1;HPM_P2
2022/07/24 00:01:49;;;;;;;6.22;4.30;;;16.40;99.90;;;;;;5114654;28;20046;-74
2022/07/24 00:04:18;;;;;;;6.47;3.83;;;16.30;99.90;;;;;;5114070;28;20051;-74
2022/07/24 00:06:44;;;;;;;5.80;4.20;;;16.30;99.90;;;;;;5115054;28;20027;-74
2022/07/24 00:09:09;;;;;;;5.40;4.05;;;16.30;99.90;;;;;;5113975;28;20554;-74
2022/07/24 00:11:35;;;;;;;5.40;3.95;;;16.20;99.90;;;;;;5114862;28;20040;-73
2022/07/24 00:14:01;;;;;;;5.68;4.05;;;16.20;99.90;;;;;;5113432;28;20040;-73
2022/07/24 00:16:27;;;;;;;6.53;3.85;;;16.20;99.90;;;;;;5110743;28;20048;-73
2022/07/24 00:18:53;;;;;;;6.90;4.40;;;16.20;99.90;;;;;;5109076;27;20438;-73
2022/07/24 00:21:19;;;;;;;7.15;4.30;;;16.20;99.90;;;;;;5113066;28;20094;-74
2022/07/24 00:23:44;;;;;;;5.40;4.20;;;16.20;99.90;;;;;;5113781;28;20044;-73
2022/07/24 00:26:11;;;;;;;6.78;4.45;;;16.20;99.90;;;;;;5112924;28;20122;-73
2022/07/24 00:28:37;;;;;;;7.10;4.75;;;16.20;99.90;;;;;;5108187;28;20487;-74
2022/07/24 00:31:03;;;;;;;5.95;4.22;;;16.20;99.90;;;;;;5112566;28;20040;-74
2022/07/24 00:33:29;;;;;;;8.07;4.70;;;16.10;99.90;;;;;;5113553;28;20047;-74
2022/07/24 00:35:54;;;;;;;5.45;4.15;;;16.10;99.90;;;;;;5114284;28;20031;-75
2022/07/24 00:38:20;;;;;;;6.78;4.60;;;16.10;99.90;;;;;;5112877;28;20046;-75
2022/07/24 00:40:46;;;;;;;6.40;4.60;;;16.10;99.90;;;;;;5114224;28;20079;-75
2022/07/24 00:43:12;;;;;;;6.10;4.57;;;16.10;99.90;;;;;;5113379;28;20036;-76
2022/07/24 00:45:38;;;;;;;6.40;4.70;;;16.00;99.90;;;;;;5113030;28;20043;-75
2022/07/24 00:48:04;;;;;;;6.13;4.88;;;16.10;99.90;;;;;;5114057;28;20432;-75
2022/07/24 00:50:30;;;;;;;7.40;5.00;;;16.10;99.90;;;;;;5114149;28;20047;-74
2022/07/24 00:52:57;;;;;;;6.45;4.82;;;16.10;99.90;;;;;;5112435;28;20040;-74
2022/07/24 00:55:23;;;;;;;7.05;4.82;;;16.00;99.90;;;;;;5114757;28;20035;-75
2022/07/24 00:57:52;;;;;;;7.95;5.03;;;16.00;99.90;;;;;;5116032;28;20043;-76
2022/07/24 01:00:20;;;;;;;6.88;5.13;;;16.00;99.90;;;;;;5114111;28;20073;-77
2022/07/24 01:02:45;;;;;;;8.88;5.70;;;15.90;99.90;;;;;;5113930;28;20051;-76
2022/07/24 01:05:11;;;;;;;7.70;5.47;;;16.00;99.90;;;;;;5113759;28;20043;-77
2022/07/24 01:07:38;;;;;;;8.75;5.60;;;16.00;99.90;;;;;;5113168;28;20085;-77
2022/07/24 01:10:05;;;;;;;7.70;5.55;;;16.00;99.90;;;;;;5113303;28;20360;-76
2022/07/24 01:12:35;;;;;;;6.13;5.05;;;16.00;99.90;;;;;;5109160;28;20067;-76
2022/07/24 01:15:01;;;;;;;7.28;5.47;;;15.90;99.90;;;;;;5108487;28;20550;-75
2022/07/24 01:17:31;;;;;;;7.53;5.82;;;15.90;99.90;;;;;;5112930;28;20057;-74
2022/07/24 01:19:58;;;;;;;8.13;5.88;;;15.90;99.90;;;;;;5112569;28;20433;-75
2022/07/24 01:22:25;;;;;;;7.00;5.65;;;15.90;99.90;;;;;;5113983;28;20039;-75
2022/07/24 01:24:54;;;;;;;9.23;5.50;;;15.90;99.90;;;;;;5111947;28;20039;-75
2022/07/24 01:27:21;;;;;;;8.73;6.15;;;15.80;99.90;;;;;;5111918;28;20089;-75
2022/07/24 01:29:48;;;;;;;10.10;5.97;;;15.90;99.90;;;;;;5113462;28;20048;-75
2022/07/24 01:32:13;;;;;;;7.90;5.70;;;15.90;99.90;;;;;;5113755;28;20035;-75
2022/07/24 01:34:39;;;;;;;10.52;5.93;;;15.90;99.90;;;;;;5113150;27;20039;-75
2022/07/24 01:37:05;;;;;;;7.68;5.85;;;15.90;99.90;;;;;;5112865;27;20562;-75
2022/07/24 01:39:30;;;;;;;7.03;5.82;;;15.90;99.90;;;;;;5113712;28;20050;-76
2022/07/24 01:41:56;;;;;;;9.02;6.18;;;15.90;99.90;;;;;;5112827;28;20160;-75
2022/07/24 01:44:24;;;;;;;8.30;5.53;;;15.80;99.90;;;;;;5113104;28;20039;-76
2022/07/24 01:46:50;;;;;;;8.52;6.88;;;15.90;99.90;;;;;;5111361;28;20123;-75
2022/07/24 01:49:16;;;;;;;9.52;6.32;;;15.80;99.90;;;;;;5111853;28;20134;-75
2022/07/24 01:51:41;;;;;;;7.88;6.15;;;15.80;99.90;;;;;;5113868;28;20085;-76
2022/07/24 01:54:07;;;;;;;8.13;6.78;;;15.90;99.90;;;;;;5112414;28;20116;-75
2022/07/24 01:56:33;;;;;;;9.18;5.90;;;15.80;99.90;;;;;;5111663;28;20050;-75
2022/07/24 01:58:59;;;;;;;8.43;6.20;;;15.80;99.90;;;;;;5111707;28;20035;-75
2022/07/24 02:01:26;;;;;;;11.00;6.72;;;15.80;99.90;;;;;;5112543;28;20058;-75
2022/07/24 02:03:52;;;;;;;10.20;6.60;;;15.80;99.90;;;;;;5107332;28;20042;-75
2022/07/24 02:06:20;;;;;;;8.25;6.25;;;15.80;99.90;;;;;;5111846;28;20043;-75
2022/07/24 02:08:46;;;;;;;8.02;6.35;;;15.80;99.90;;;;;;5111470;28;20390;-75
2022/07/24 02:11:12;;;;;;;8.40;6.72;;;15.80;99.90;;;;;;5112418;28;20036;-75
2022/07/24 02:13:37;;;;;;;8.80;6.45;;;15.70;99.90;;;;;;5113383;28;20503;-75
2022/07/24 02:16:04;;;;;;;11.25;6.05;;;15.70;99.90;;;;;;5112111;28;20039;-75
2022/07/24 02:18:29;;;;;;;8.70;6.55;;;15.70;99.90;;;;;;5112158;28;20047;-75
2022/07/24 02:20:55;;;;;;;9.07;6.88;;;15.70;99.90;;;;;;5111995;28;20510;-74
2022/07/24 02:23:21;;;;;;;8.45;6.28;;;15.60;99.90;;;;;;5122867;28;20095;-75
2022/07/24 02:25:49;;;;;;;9.02;6.70;;;15.60;99.90;;;;;;5113278;28;20126;-75
2022/07/24 02:28:15;;;;;;;8.80;6.53;;;15.60;99.90;;;;;;5113139;28;20100;-75
2022/07/24 02:30:41;;;;;;;10.70;6.03;;;15.60;99.90;;;;;;5112450;28;20035;-75
2022/07/24 02:33:08;;;;;;;9.95;6.90;;;15.60;99.90;;;;;;5113821;28;20099;-74
2022/07/24 02:35:34;;;;;;;9.50;7.03;;;15.60;99.90;;;;;;5113470;28;20157;-75
2022/07/24 02:38:03;;;;;;;9.23;6.70;;;15.80;99.90;;;;;;5110489;28;20073;-76
2022/07/24 02:40:30;;;;;;;8.25;6.72;;;15.60;99.90;;;;;;5111007;28;20055;-75
2022/07/24 02:42:59;;;;;;;8.52;6.80;;;15.60;99.90;;;;;;5110729;28;20044;-75
2022/07/24 02:45:24;;;;;;;8.95;6.88;;;15.70;99.90;;;;;;5109886;28;20479;-76
2022/07/24 02:47:53;;;;;;;10.18;7.57;;;15.60;99.90;;;;;;5111567;28;20043;-76
2022/07/24 02:50:22;;;;;;;9.63;7.75;;;15.70;99.90;;;;;;5112283;28;20495;-76
2022/07/24 02:52:48;;;;;;;8.75;6.75;;;15.60;99.90;;;;;;5110329;28;20502;-76
2022/07/24 02:55:14;;;;;;;11.10;7.00;;;15.50;99.90;;;;;;5110873;28;20043;-77
2022/07/24 02:57:40;;;;;;;8.63;7.03;;;15.50;99.90;;;;;;5111383;28;20035;-77
2022/07/24 03:00:16;;;;;;;8.75;6.95;;;15.50;99.90;;;;;;5110551;28;20376;-77
2022/07/24 03:02:43;;;;;;;9.93;7.28;;;15.50;99.90;;;;;;5106992;28;20039;-76
2022/07/24 03:05:09;;;;;;;8.93;6.93;;;15.40;99.90;;;;;;5111430;28;20048;-77
2022/07/24 03:07:38;;;;;;;9.88;7.45;;;15.40;99.90;;;;;;5111587;28;20408;-76
2022/07/24 03:10:06;;;;;;;9.45;7.25;;;15.30;99.90;;;;;;5111130;28;20220;-76
2022/07/24 03:12:31;;;;;;;12.13;7.35;;;15.40;99.90;;;;;;5110449;28;20044;-76
2022/07/24 03:14:57;;;;;;;8.75;6.85;;;15.40;99.90;;;;;;5110413;28;20556;-76
2022/07/24 03:17:23;;;;;;;10.60;7.50;;;15.40;99.90;;;;;;5111087;28;20043;-76
2022/07/24 03:19:52;;;;;;;11.05;7.55;;;15.40;99.90;;;;;;5111563;28;20063;-76
2022/07/24 03:22:19;;;;;;;9.50;6.88;;;15.40;99.90;;;;;;5109992;28;20126;-76
2022/07/24 03:24:44;;;;;;;10.73;7.47;;;15.40;99.90;;;;;;5110550;28;20539;-76
2022/07/24 03:27:10;;;;;;;10.60;7.43;;;15.70;99.90;;;;;;5109756;28;20788;-76
2022/07/24 03:29:36;;;;;;;11.18;7.03;;;15.50;99.90;;;;;;5111901;28;20121;-77
2022/07/24 03:32:01;;;;;;;12.00;7.72;;;15.50;99.90;;;;;;5110414;28;20384;-77
2022/07/24 03:34:27;;;;;;;11.25;8.30;;;15.40;99.90;;;;;;5110770;28;20391;-77
2022/07/24 03:36:56;;;;;;;10.73;8.02;;;15.50;99.90;;;;;;5111578;28;20483;-77
2022/07/24 03:39:22;;;;;;;11.40;8.68;;;15.50;99.90;;;;;;5111928;28;20418;-78
2022/07/24 03:41:48;;;;;;;12.60;8.80;;;15.40;99.90;;;;;;5111042;28;20043;-77
2022/07/24 03:44:14;;;;;;;11.45;8.95;;;15.60;99.90;;;;;;5110551;28;20092;-77
2022/07/24 03:46:39;;;;;;;14.23;9.30;;;15.50;99.90;;;;;;5112815;28;20120;-77
2022/07/24 03:49:05;;;;;;;11.57;8.85;;;15.50;99.90;;;;;;5120971;28;20019;-76
2022/07/24 03:51:31;;;;;;;10.95;8.00;;;15.50;99.90;;;;;;5111931;28;20047;-77
2022/07/24 03:53:57;;;;;;;11.57;7.88;;;15.50;99.90;;;;;;5110966;28;20044;-77
2022/07/24 03:56:23;;;;;;;13.75;8.05;;;15.40;99.90;;;;;;5113062;28;20471;-78
2022/07/24 03:58:49;;;;;;;10.27;7.75;;;15.50;99.90;;;;;;5114559;28;20160;-77
2022/07/24 04:01:14;;;;;;;11.82;8.10;;;15.50;99.90;;;;;;5113084;28;20041;-77
2022/07/24 04:03:40;;;;;;;11.50;8.57;;;15.40;99.90;;;;;;5113845;28;20046;-76
2022/07/24 04:06:06;;;;;;;9.77;7.32;;;15.50;99.90;;;;;;5114942;28;20502;-77
2022/07/24 04:08:33;;;;;;;9.95;7.63;;;15.60;99.90;;;;;;5113540;28;20035;-77
2022/07/24 04:10:59;;;;;;;11.82;7.90;;;15.60;99.90;;;;;;5113135;28;20050;-76
2022/07/24 04:13:27;;;;;;;10.73;7.95;;;15.60;99.90;;;;;;5115327;27;20042;-77
2022/07/24 04:15:55;;;;;;;12.30;7.93;;;15.60;99.90;;;;;;5114594;27;20089;-76
2022/07/24 04:18:22;;;;;;;11.15;7.38;;;15.60;99.90;;;;;;5113411;28;20035;-77
2022/07/24 04:20:48;;;;;;;18.70;7.82;;;15.70;99.90;;;;;;5114540;28;20118;-76
2022/07/24 04:23:14;;;;;;;10.27;8.10;;;15.70;99.90;;;;;;5114387;28;20082;-75
2022/07/24 04:25:40;;;;;;;12.27;8.75;;;15.80;99.90;;;;;;5115035;27;20063;-75
2022/07/24 04:28:05;;;;;;;10.40;8.10;;;15.80;99.90;;;;;;5113322;28;20521;-75
2022/07/24 04:30:31;;;;;;;10.18;7.95;;;15.80;99.90;;;;;;5113313;28;20040;-74
2022/07/24 04:32:57;;;;;;;11.13;8.05;;;15.90;99.90;;;;;;5114614;28;20035;-75
2022/07/24 04:35:23;;;;;;;11.85;7.70;;;15.90;99.90;;;;;;5113844;28;20043;-75
2022/07/24 04:37:49;;;;;;;10.90;7.85;;;15.90;99.90;;;;;;5112900;28;20051;-75
2022/07/24 04:40:15;;;;;;;13.55;8.10;;;16.00;99.90;;;;;;5114417;28;20369;-74
2022/07/24 04:42:40;;;;;;;11.90;7.75;;;16.00;99.90;;;;;;5116949;28;20372;-74
2022/07/24 04:45:10;;;;;;;11.45;7.78;;;15.90;99.90;;;;;;5112468;28;20075;-74
2022/07/24 04:47:39;;;;;;;12.98;8.27;;;16.10;99.90;;;;;;5114188;28;20411;-75
2022/07/24 04:50:05;;;;;;;10.43;8.05;;;16.10;99.90;;;;;;5112691;28;20040;-75
2022/07/24 04:52:31;;;;;;;9.75;7.90;;;16.20;99.90;;;;;;5113515;28;20047;-75
2022/07/24 04:54:57;;;;;;;10.82;8.13;;;16.10;99.90;;;;;;5112643;28;20600;-75
2022/07/24 04:57:25;;;;;;;11.10;8.68;;;16.20;99.90;;;;;;5113734;28;20039;-75
2022/07/24 04:59:50;;;;;;;10.70;8.27;;;16.20;99.90;;;;;;5112893;28;20119;-75
2022/07/24 05:02:16;;;;;;;11.10;8.65;;;16.20;99.90;;;;;;5114084;28;20103;-75
2022/07/24 05:04:42;;;;;;;10.98;8.35;;;16.30;99.90;;;;;;5112516;28;20503;-75
2022/07/24 05:07:08;;;;;;;10.57;8.35;;;16.30;99.90;;;;;;5112418;28;20118;-76
2022/07/24 05:09:33;;;;;;;12.63;9.00;;;16.30;99.90;;;;;;5113248;28;20023;-76
2022/07/24 05:11:59;;;;;;;11.27;8.63;;;16.40;99.90;;;;;;5113178;28;20509;-75
2022/07/24 05:14:24;;;;;;;11.95;8.40;;;16.50;99.90;;;;;;5112567;28;20064;-75
2022/07/24 05:16:50;;;;;;;12.27;8.10;;;16.70;99.90;;;;;;5112475;28;20394;-75
2022/07/24 05:19:16;;;;;;;11.13;8.05;;;16.80;99.90;;;;;;5113489;28;20047;-74
2022/07/24 05:21:41;;;;;;;11.63;8.48;;;16.70;99.90;;;;;;5113635;28;20043;-76
2022/07/24 05:24:10;;;;;;;12.52;8.00;;;16.90;99.90;;;;;;5112983;27;20061;-76
2022/07/24 05:26:35;;;;;;;11.50;8.82;;;17.00;99.90;;;;;;5112174;28;20089;-76
2022/07/24 05:29:03;;;;;;;13.45;8.40;;;17.20;99.90;;;;;;5113157;28;20035;-75
2022/07/24 05:31:29;;;;;;;12.30;8.60;;;17.30;99.90;;;;;;5112416;27;20056;-76
2022/07/24 05:33:55;;;;;;;11.98;8.73;;;17.40;99.90;;;;;;5110044;28;20387;-77
2022/07/24 05:36:21;;;;;;;11.50;9.00;;;17.50;99.90;;;;;;5112018;28;20127;-76
2022/07/24 05:38:47;;;;;;;13.73;9.13;;;17.60;99.90;;;;;;5111562;28;20051;-76
2022/07/24 05:41:13;;;;;;;13.27;10.05;;;17.60;99.90;;;;;;5109853;28;20090;-76
2022/07/24 05:43:39;;;;;;;12.52;8.48;;;17.70;99.90;;;;;;5112791;28;20474;-76
2022/07/24 05:46:07;;;;;;;14.25;9.85;;;17.80;99.90;;;;;;5112108;28;20398;-76
2022/07/24 05:48:33;;;;;;;13.60;9.52;;;17.90;99.90;;;;;;5111903;28;20043;-76
2022/07/24 05:50:59;;;;;;;15.13;10.50;;;17.80;99.90;;;;;;5111367;28;20398;-77
2022/07/24 05:53:25;;;;;;;14.80;9.60;;;17.90;99.90;;;;;;5110443;28;20395;-76
2022/07/24 05:55:54;;;;;;;15.55;10.55;;;18.00;99.90;;;;;;5112625;28;20043;-76
2022/07/24 05:58:19;;;;;;;14.95;10.52;;;18.00;99.90;;;;;;5112623;28;20062;-77
2022/07/24 06:00:46;;;;;;;15.25;11.10;;;18.00;99.90;;;;;;5113026;28;20120;-76
2022/07/24 06:03:12;;;;;;;14.52;10.57;;;18.00;99.90;;;;;;5107256;28;20387;-76
2022/07/24 06:05:40;;;;;;;15.70;10.55;;;18.10;99.90;;;;;;5111769;28;20047;-76
2022/07/24 06:08:09;;;;;;;14.70;11.27;;;18.20;99.90;;;;;;5110502;28;20052;-76
2022/07/24 06:10:35;;;;;;;14.82;11.27;;;18.30;99.90;;;;;;5110558;28;20102;-77
2022/07/24 06:13:03;;;;;;;14.82;11.23;;;18.40;99.90;;;;;;5110227;28;20048;-76
2022/07/24 06:15:29;;;;;;;17.98;12.02;;;18.60;99.90;;;;;;5110591;28;20039;-75
2022/07/24 06:17:55;;;;;;;16.05;12.40;;;18.70;99.90;;;;;;5109759;28;20058;-75
2022/07/24 06:20:20;;;;;;;14.75;12.07;;;18.80;99.90;;;;;;5111730;28;20047;-73
2022/07/24 06:22:46;;;;;;;16.70;11.55;;;19.00;99.90;;;;;;5110690;28;20479;-75
2022/07/24 06:25:12;;;;;;;19.42;13.13;;;19.20;99.90;;;;;;5110227;28;20092;-75
2022/07/24 06:27:43;;;;;;;18.42;12.40;;;19.50;99.90;;;;;;5111411;28;20043;-75
2022/07/24 06:30:26;;;;;;;15.95;11.40;;;19.70;99.90;;;;;;5103357;28;20041;-75
2022/07/24 06:33:00;;;;;;;14.57;10.90;;;19.90;99.90;;;;;;5110234;28;20048;-75
2022/07/24 06:35:28;;;;;;;16.10;10.30;;;20.10;99.90;;;;;;5111026;28;20040;-75
2022/07/24 06:37:55;;;;;;;13.43;9.30;;;20.20;99.90;;;;;;5111590;28;20054;-73
2022/07/24 06:40:21;;;;;;;15.20;9.25;;;20.40;99.90;;;;;;5111285;28;20047;-74
2022/07/24 06:42:51;;;;;;;10.77;7.60;;;20.40;99.90;;;;;;5111154;28;20229;-74
2022/07/24 06:45:17;;;;;;;9.27;6.22;;;20.50;99.90;;;;;;5111170;28;20122;-73
2022/07/24 06:47:43;;;;;;;8.13;4.63;;;20.60;99.90;;;;;;5112828;28;20082;-74
2022/07/24 06:50:10;;;;;;;9.65;4.50;;;20.60;99.90;;;;;;5110303;28;20040;-74
2022/07/24 06:52:35;;;;;;;7.63;4.32;;;20.70;99.90;;;;;;5111965;28;20041;-74
2022/07/24 06:55:01;;;;;;;8.85;4.45;;;20.70;99.90;;;;;;5110891;28;20122;-74
2022/07/24 06:57:27;;;;;;;8.93;4.68;;;20.80;99.90;;;;;;5111679;28;20471;-74
2022/07/24 06:59:53;;;;;;;8.85;4.63;;;20.70;99.90;;;;;;5109829;28;20479;-74
2022/07/24 07:02:20;;;;;;;8.32;4.50;;;20.80;99.90;;;;;;5111941;28;20104;-73
2022/07/24 07:04:46;;;;;;;6.88;4.28;;;20.70;99.90;;;;;;5111630;28;20035;-75
2022/07/24 07:07:12;;;;;;;8.68;4.68;;;20.70;99.90;;;;;;5114228;28;20159;-74
2022/07/24 07:09:37;;;;;;;7.43;4.68;;;20.80;99.90;;;;;;5110849;28;20435;-74
2022/07/24 07:12:07;;;;;;;7.68;4.28;;;20.80;99.90;;;;;;5109589;28;20556;-74
2022/07/24 07:14:33;;;;;;;8.10;4.03;;;20.90;99.90;;;;;;5108445;28;20031;-74
2022/07/24 07:16:58;;;;;;;8.77;4.38;;;20.90;99.90;;;;;;5110361;28;20114;-75
2022/07/24 07:19:24;;;;;;;5.75;4.00;;;21.00;99.90;;;;;;5109696;28;20052;-75
2022/07/24 07:21:53;;;;;;;7.30;4.28;;;21.00;99.90;;;;;;5111774;28;20384;-75
2022/07/24 07:24:19;;;;;;;7.18;4.45;;;21.00;99.90;;;;;;5110206;28;20044;-72
2022/07/24 07:26:44;;;;;;;7.85;4.95;;;21.00;99.90;;;;;;5109472;28;20051;-72
2022/07/24 07:29:10;;;;;;;6.82;4.10;;;21.00;99.90;;;;;;5109769;28;20040;-74
2022/07/24 07:31:36;;;;;;;7.07;4.40;;;21.10;99.90;;;;;;5115627;28;20047;-74
2022/07/24 07:34:02;;;;;;;6.93;4.50;;;21.00;99.90;;;;;;5114694;28;20547;-80
2022/07/24 07:36:31;;;;;;;8.40;4.25;;;20.90;99.90;;;;;;5114406;28;20114;-78
2022/07/24 07:38:57;;;;;;;7.38;4.30;;;20.90;99.90;;;;;;5113725;28;20123;-83
2022/07/24 07:41:24;;;;;;;6.45;3.85;;;20.70;99.90;;;;;;5117004;28;20118;-86
2022/07/24 07:43:58;;;;;;;8.60;4.85;;;20.80;99.90;;;;;;5114728;28;20096;-75
2022/07/24 07:46:38;;;;;;;6.70;3.92;;;20.90;99.90;;;;;;5112966;28;20040;-76
2022/07/24 07:49:04;;;;;;;8.95;4.22;;;20.90;99.90;;;;;;5114010;28;20403;-76
2022/07/24 07:51:32;;;;;;;9.48;5.10;;;20.90;99.90;;;;;;5114878;28;20558;-78
2022/07/24 07:53:57;;;;;;;9.43;4.82;;;21.00;99.90;;;;;;5114667;28;20089;-77
2022/07/24 07:56:23;;;;;;;8.75;4.50;;;21.00;99.90;;;;;;5115511;28;20039;-78
2022/07/24 07:58:49;;;;;;;7.95;5.18;;;21.40;99.90;;;;;;5114786;28;20043;-78
2022/07/24 08:01:16;;;;;;;10.10;4.10;;;22.20;99.90;;;;;;5115298;28;20083;-79
2022/07/24 08:03:42;;;;;;;7.22;3.88;;;23.30;99.90;;;;;;5116012;28;20032;-84
2022/07/24 08:06:07;;;;;;;8.48;3.90;;;23.70;99.90;;;;;;5114391;28;20039;-81
2022/07/24 08:08:36;;;;;;;6.13;3.55;;;24.50;99.90;;;;;;5114042;28;20485;-79
2022/07/24 08:11:02;;;;;;;7.38;3.35;;;24.70;99.90;;;;;;5114272;28;20069;-77
2022/07/24 08:13:28;;;;;;;5.78;3.55;;;24.60;99.90;;;;;;5114979;28;20040;-76
2022/07/24 08:15:53;;;;;;;6.18;3.22;;;24.20;99.90;;;;;;5114105;28;20059;-78
2022/07/24 08:18:19;;;;;;;5.40;3.20;;;24.50;99.90;;;;;;5115410;28;20092;-77
2022/07/24 08:20:45;;;;;;;6.00;2.95;;;24.70;99.90;;;;;;5114181;28;20416;-78
2022/07/24 08:23:11;;;;;;;5.38;3.33;;;24.80;99.90;;;;;;5114376;28;20073;-79
2022/07/24 08:25:37;;;;;;;5.25;3.28;;;24.80;99.90;;;;;;5113710;28;20447;-83
2022/07/24 08:28:03;;;;;;;5.30;3.00;;;24.70;99.90;;;;;;5114968;28;20071;-77
2022/07/24 08:30:29;;;;;;;6.65;3.17;;;24.60;99.90;;;;;;5114544;28;20051;-77
2022/07/24 08:32:54;;;;;;;4.47;2.80;;;25.20;99.10;;;;;;5117811;28;20380;-78
2022/07/24 08:35:26;;;;;;;7.15;3.40;;;25.70;98.90;;;;;;5113878;28;20043;-79
2022/07/24 08:37:54;;;;;;;4.57;3.03;;;26.50;98.20;;;;;;5112498;28;20043;-77
2022/07/24 08:40:28;;;;;;;4.35;2.90;;;26.70;98.10;;;;;;5113891;28;20035;-78
2022/07/24 08:42:55;;;;;;;5.18;2.90;;;27.20;97.70;;;;;;5112883;28;20470;-80
2022/07/24 08:45:21;;;;;;;6.93;3.10;;;27.50;95.80;;;;;;5113691;28;20364;-79
2022/07/24 08:47:51;;;;;;;8.32;2.72;;;27.60;96.40;;;;;;5113881;28;20039;-76
2022/07/24 08:50:17;;;;;;;4.85;3.00;;;27.90;95.50;;;;;;5113269;28;20035;-78
2022/07/24 08:52:44;;;;;;;4.65;2.67;;;27.90;95.60;;;;;;5111416;28;20533;-79
2022/07/24 08:55:10;;;;;;;5.22;2.90;;;28.30;95.20;;;;;;5113227;28;20051;-77
2022/07/24 08:57:36;;;;;;;5.40;2.85;;;28.40;95.50;;;;;;5113720;28;20040;-78
2022/07/24 09:00:02;;;;;;;4.93;2.63;;;28.60;94.70;;;;;;5113862;28;20112;-78
2022/07/24 09:02:28;;;;;;;4.95;2.55;;;28.80;94.90;;;;;;5114503;28;20100;-78
2022/07/24 09:05:01;;;;;;;5.93;2.83;;;29.10;93.90;;;;;;5112401;28;20538;-78
2022/07/24 09:07:29;;;;;;;7.13;3.00;;;29.00;94.30;;;;;;5114783;28;20039;-77
2022/07/24 09:10:13;;;;;;;6.60;3.00;;;29.20;94.30;;;;;;5112705;28;20062;-77
2022/07/24 09:12:44;;;;;;;4.95;2.90;;;29.30;93.40;;;;;;5114299;27;20031;-77
2022/07/24 09:15:17;;;;;;;3.75;2.63;;;29.10;94.00;;;;;;5109255;28;20513;-76
2022/07/24 09:17:55;;;;;;;5.65;2.55;;;29.30;93.80;;;;;;5109268;28;20051;-77
2022/07/24 09:20:27;;;;;;;5.00;2.42;;;29.50;94.00;;;;;;5111332;28;20043;-78
2022/07/24 09:22:59;;;;;;;5.78;3.20;;;29.60;93.60;;;;;;5112636;28;20059;-76
2022/07/24 09:25:28;;;;;;;6.68;2.45;;;29.80;92.90;;;;;;5112393;28;20035;-77
2022/07/24 09:27:58;;;;;;;4.95;3.00;;;29.70;93.10;;;;;;5114462;28;20081;-77
2022/07/24 09:30:36;;;;;;;6.90;3.10;;;29.80;93.50;;;;;;5114976;28;20038;-78
2022/07/24 09:33:04;;;;;;;4.90;2.80;;;29.80;93.20;;;;;;5113608;28;20118;-78
2022/07/24 09:35:33;;;;;;;4.22;2.72;;;29.60;92.40;;;;;;5112739;28;20043;-77
2022/07/24 09:38:00;;;;;;;5.30;2.65;;;29.30;92.70;;;;;;5114101;28;20048;-78
2022/07/24 09:40:46;;;;;;;4.10;2.42;;;29.50;93.60;;;;;;5113955;28;20063;-79
2022/07/24 09:43:31;;;;;;;4.95;2.40;;;30.00;92.70;;;;;;5111442;28;20035;-80
2022/07/24 09:46:08;;;;;;;4.47;2.33;;;29.80;92.80;;;;;;5113360;28;20050;-77
2022/07/24 09:48:37;;;;;;;4.95;2.58;;;29.60;92.00;;;;;;5108561;28;20168;-81
2022/07/24 09:51:32;;;;;;;4.32;2.35;;;28.50;93.20;;;;;;5110045;28;20032;-79
2022/07/24 09:54:02;;;;;;;5.72;2.70;;;27.80;93.60;;;;;;5112361;28;20035;-73
2022/07/24 09:56:30;;;;;;;4.65;2.45;;;27.00;94.30;;;;;;5094942;28;20077;-74
2022/07/24 09:59:00;;;;;;;4.22;2.38;;;26.70;94.70;;;;;;5113021;28;20391;-73
2022/07/24 10:01:30;;;;;;;4.22;2.42;;;26.50;95.40;;;;;;5111012;28;20052;-74
2022/07/24 10:03:56;;;;;;;3.92;2.25;;;26.30;94.80;;;;;;5112025;28;20048;-74
2022/07/24 10:06:25;;;;;;;3.92;2.38;;;26.10;94.60;;;;;;5113067;28;20051;-75
2022/07/24 10:08:52;;;;;;;3.75;2.10;;;26.10;94.70;;;;;;5112186;28;20043;-75
2022/07/24 10:11:23;;;;;;;5.03;2.38;;;26.10;94.80;;;;;;5112489;28;20521;-76
2022/07/24 10:13:50;;;;;;;4.15;2.25;;;26.10;94.70;;;;;;5112568;28;20479;-75
2022/07/24 10:16:21;;;;;;;4.30;2.15;;;26.10;94.60;;;;;;5112822;28;20035;-75
2022/07/24 10:18:56;;;;;;;7.50;2.30;;;26.00;95.00;;;;;;5112724;28;20047;-74
2022/07/24 10:21:34;;;;;;;4.60;2.27;;;26.10;95.10;;;;;;5110579;28;20047;-75
2022/07/24 10:24:24;;;;;;;4.68;2.33;;;26.40;94.70;;;;;;5109249;28;20204;-75
2022/07/24 10:26:51;;;;;;;4.63;2.40;;;26.60;94.90;;;;;;5111551;28;20498;-75
2022/07/24 10:29:24;;;;;;;4.35;2.40;;;26.80;94.70;;;;;;5112035;28;20127;-74
2022/07/24 10:31:55;;;;;;;3.25;2.20;;;26.80;94.10;;;;;;5110959;28;20126;-75
2022/07/24 10:34:24;;;;;;;6.78;1.88;;;27.30;94.50;;;;;;5111680;28;20495;-75
2022/07/24 10:37:28;;;;;;;4.45;2.00;;;27.90;93.60;;;;;;5110853;28;20498;-75
2022/07/24 10:40:16;;;;;;;4.90;2.15;;;28.50;93.50;;;;;;5049976;28;20037;-74
2022/07/24 10:43:09;;;;;;;4.40;2.28;;;28.80;92.40;;;;;;5031476;28;20048;-75
2022/07/24 10:45:43;;;;;;;3.85;2.28;;;28.80;92.20;;;;;;5095716;28;20107;-73
2022/07/24 10:48:21;;;;;;;3.15;1.98;;;28.70;92.70;;;;;;5111649;28;20047;-75
2022/07/24 10:51:07;;;;;;;4.90;1.92;;;28.70;92.90;;;;;;5110905;28;20054;-76
2022/07/24 10:53:39;;;;;;;5.40;1.90;;;29.30;92.30;;;;;;5110303;28;20053;-74
2022/07/24 10:56:27;;;;;;;3.40;2.28;;;29.50;92.10;;;;;;5111909;28;20617;-74
2022/07/24 10:59:02;;;;;;;3.65;2.08;;;29.80;91.70;;;;;;5103395;28;20051;-75
2022/07/24 11:01:35;;;;;;;3.83;2.25;;;30.00;92.00;;;;;;5110229;28;20040;-75
2022/07/24 11:04:04;;;;;;;3.15;1.80;;;30.40;90.70;;;;;;5112855;28;20047;-73
2022/07/24 11:06:50;;;;;;;3.90;2.13;;;30.50;90.10;;;;;;5117889;28;20490;-74
2022/07/24 11:09:17;;;;;;;;;;;30.40;90.00;;;;;;5117796;28;20127;-74
2022/07/24 11:12:04;;;;;;;3.67;2.10;;;30.10;90.70;;;;;;5116018;28;19927;-73
2022/07/24 11:14:42;;;;;;;4.10;2.30;;;29.80;90.00;;;;;;5114210;28;20054;-73
2022/07/24 11:17:37;;;;;;;3.92;2.20;;;29.80;90.10;;;;;;5116020;28;20044;-73
2022/07/24 11:20:04;;;;;;;3.72;2.28;;;29.90;88.60;;;;;;5112923;28;20054;-72
2022/07/24 11:22:40;;;;;;;5.28;2.10;;;30.00;89.80;;;;;;5115224;28;20047;-72
2022/07/24 11:25:14;;;;;;;3.20;1.92;;;29.90;88.50;;;;;;5114418;28;20044;-73
2022/07/24 11:27:48;;;;;;;3.67;2.20;;;30.10;89.00;;;;;;5116190;28;20050;-71
2022/07/24 11:30:15;;;;;;;6.97;2.03;;;30.10;88.60;;;;;;5115719;28;20039;-73
2022/07/24 11:32:41;;;;;;;2.70;1.90;;;30.10;89.70;;;;;;5114437;28;20047;-72
2022/07/24 11:35:08;;;;;;;4.10;2.22;;;30.10;88.70;;;;;;5114287;28;20051;-73
2022/07/24 11:37:39;;;;;;;3.22;1.83;;;30.20;90.40;;;;;;5116135;28;20031;-72
2022/07/24 11:40:07;;;;;;;3.17;2.08;;;30.30;89.70;;;;;;5107351;28;20465;-73
2022/07/24 11:42:33;;;;;;;3.55;2.20;;;30.40;89.30;;;;;;5113406;27;20036;-72
2022/07/24 11:45:01;;;;;;;3.38;1.90;;;30.20;89.90;;;;;;5109093;28;20157;-74
2022/07/24 11:47:27;;;;;;;3.30;2.00;;;30.40;89.50;;;;;;5114247;28;20083;-73
2022/07/24 11:50:02;;;;;;;3.67;1.95;;;30.00;89.60;;;;;;5109320;28;20039;-73
2022/07/24 11:52:37;;;;;;;2.90;1.80;;;29.70;89.00;;;;;;5113818;28;20044;-75
2022/07/24 11:55:14;;;;;;;3.80;1.92;;;29.60;90.00;;;;;;5113600;28;20089;-75
2022/07/24 11:57:42;;;;;;;4.35;2.10;;;29.30;90.20;;;;;;5114225;28;20394;-75
2022/07/24 12:00:11;;;;;;;3.33;1.90;;;29.40;90.40;;;;;;5114514;28;20032;-74
2022/07/24 12:02:43;;;;;;;3.10;1.80;;;29.20;91.40;;;;;;5113931;28;20063;-75
2022/07/24 12:05:08;;;;;;;2.97;1.85;;;29.30;91.20;;;;;;5113984;28;20380;-74
2022/07/24 12:07:35;;;;;;;5.38;1.88;;;29.40;90.50;;;;;;5114744;28;20043;-75
2022/07/24 12:10:03;;;;;;;2.97;1.80;;;29.40;90.40;;;;;;5113864;28;20048;-74
2022/07/24 12:12:38;;;;;;;2.75;1.77;;;29.30;90.40;;;;;;5115695;28;20114;-73
2022/07/24 12:15:07;;;;;;;3.75;1.77;;;29.50;90.50;;;;;;5114324;28;20122;-73
2022/07/24 12:17:59;;;;;;;4.22;1.80;;;29.40;90.20;;;;;;5114757;28;20039;-73
2022/07/24 12:20:29;;;;;;;5.00;1.75;;;29.60;90.30;;;;;;5113227;28;20105;-75
2022/07/24 12:22:57;;;;;;;4.13;2.00;;;29.80;89.50;;;;;;5106647;28;20411;-74
2022/07/24 12:25:26;;;;;;;3.55;1.88;;;29.70;90.10;;;;;;5114522;28;20039;-73
2022/07/24 12:28:15;;;;;;;4.18;1.73;;;29.60;89.90;;;;;;5113776;28;20031;-73
2022/07/24 12:30:45;;;;;;;4.05;1.90;;;29.80;90.30;;;;;;5112488;28;20044;-73
2022/07/24 12:33:14;;;;;;;3.65;1.88;;;29.70;90.50;;;;;;5113722;28;20046;-73
2022/07/24 12:36:08;;;;;;;5.20;1.80;;;29.70;90.00;;;;;;5109159;28;20135;-76
2022/07/24 12:38:39;;;;;;;3.35;1.70;;;29.70;90.10;;;;;;5114621;28;20039;-75
2022/07/24 12:41:14;;;;;;;2.90;1.60;;;29.50;90.30;;;;;;5114155;28;20079;-75
2022/07/24 12:43:50;;;;;;;3.95;1.63;;;29.40;90.00;;;;;;5111361;28;20054;-75
2022/07/24 12:46:18;;;;;;;2.63;1.60;;;29.40;90.20;;;;;;5113377;28;20039;-77
2022/07/24 12:49:07;;;;;;;4.35;1.60;;;28.90;90.80;;;;;;5112655;28;20042;-76
2022/07/24 12:51:50;;;;;;;6.10;1.80;;;29.00;90.50;;;;;;5110556;28;20042;-75